sensor_id;sensor_type;location;lat;lon;timestamp;temperature;humidity
8778;DHT22;4425;50.872;4.712;2022-12-26T00:00:42;11.30;99.90
8778;DHT22;4425;50.872;4.712;2022-12-26T00:03:15;11.30;99.90
8778;DHT22;4425;50.872;4.712;2022-12-26T00:06:00;11.30;99.90
8778;DHT22;4425;50.872;4.712;2022-12-26T00:08:32;11.40;99.90
8778;DHT22;4425;50.872;4.712;2022-12-26T00:10:59;11.40;99.90
8778;DHT22;4425;50.872;4.712;2022-12-26T00:13:45;11.40;99.90
8778;DHT22;4425;50.872;4.712;2022-12-26T00:16:17;11.40;99.90
8778;DHT22;4425;50.872;4.712;2022-12-26T00:18:54;11.50;99.90
8778;DHT22;4425;50.872;4.712;2022-12-26T00:21:33;11.40;99.90
8778;DHT22;4425;50.872;4.712;2022-12-26T00:24:05;11.40;99.90
8778;DHT22;4425;50.872;4.712;2022-12-26T00:26:35;11.40;99.90
8778;DHT22;4425;50.872;4.712;2022-12-26T00:29:09;11.40;99.90
8778;DHT22;4425;50.872;4.712;2022-12-26T00:31:51;11.40;99.90
8778;DHT22;4425;50.872;4.712;2022-12-26T00:34:20;11.40;99.90
8778;DHT22;4425;50.872;4.712;2022-12-26T00:36:53;11.40;99.90
8778;DHT22;4425;50.872;4.712;2022-12-26T00:39:21;11.30;99.90
8778;DHT22;4425;50.872;4.712;2022-12-26T00:41:53;11.30;99.90
8778;DHT22;4425;50.872;4.712;2022-12-26T00:44:23;11.30;99.90
8778;DHT22;4425;50.872;4.712;2022-12-26T00:46:52;11.30;99.90
8778;DHT22;4425;50.872;4.712;2022-12-26T00:49:33;11.30;99.90
8778;DHT22;4425;50.872;4.712;2022-12-26T00:52:03;11.30;99.90
8778;DHT22;4425;50.872;4.712;2022-12-26T00:54:31;11.20;99.90
8778;DHT22;4425;50.872;4.712;2022-12-26T00:57:00;11.20;99.90
8778;DHT22;4425;50.872;4.712;2022-12-26T00:59:41;11.20;99.90
8778;DHT22;4425;50.872;4.712;2022-12-26T01:02:22;11.10;99.90
8778;DHT22;4425;50.872;4.712;2022-12-26T01:05:08;11.10;99.90
8778;DHT22;4425;50.872;4.712;2022-12-26T01:07:57;11.20;99.90
8778;DHT22;4425;50.872;4.712;2022-12-26T01:10:41;11.10;99.90
8778;DHT22;4425;50.872;4.712;2022-12-26T01:13:09;11.10;99.90
8778;DHT22;4425;50.872;4.712;2022-12-26T01:15:39;11.10;99.90
8778;DHT22;4425;50.872;4.712;2022-12-26T01:18:07;11.10;99.90
8778;DHT22;4425;50.872;4.712;2022-12-26T01:20:37;11.10;99.90
8778;DHT22;4425;50.872;4.712;2022-12-26T01:23:09;11.10;99.90
8778;DHT22;4425;50.872;4.712;2022-12-26T01:25:38;11.10;99.90
8778;DHT22;4425;50.872;4.712;2022-12-26T01:28:05;11.10;99.90
8778;DHT22;4425;50.872;4.712;2022-12-26T01:30:32;11.00;99.90
8778;DHT22;4425;50.872;4.712;2022-12-26T01:32:59;11.10;99.90
8778;DHT22;4425;50.872;4.712;2022-12-26T01:35:35;11.00;99.90
8778;DHT22;4425;50.872;4.712;2022-12-26T01:38:03;10.90;99.90
8778;DHT22;4425;50.872;4.712;2022-12-26T01:40:47;10.90;99.90
8778;DHT22;4425;50.872;4.712;2022-12-26T01:43:51;10.90;99.90
8778;DHT22;4425;50.872;4.712;2022-12-26T01:46:23;10.90;99.90
8778;DHT22;4425;50.872;4.712;2022-12-26T01:48:52;10.90;99.90
8778;DHT22;4425;50.872;4.712;2022-12-26T01:51:24;10.90;99.90
8778;DHT22;4425;50.872;4.712;2022-12-26T01:53:54;10.90;99.90
8778;DHT22;4425;50.872;4.712;2022-12-26T01:56:30;10.90;99.90
8778;DHT22;4425;50.872;4.712;2022-12-26T01:59:08;10.90;99.90
8778;DHT22;4425;50.872;4.712;2022-12-26T02:01:39;10.90;99.90
8778;DHT22;4425;50.872;4.712;2022-12-26T02:04:10;10.90;99.90
8778;DHT22;4425;50.872;4.712;2022-12-26T02:06:57;10.90;99.90
8778;DHT22;4425;50.872;4.712;2022-12-26T02:09:32;10.90;99.90
8778;DHT22;4425;50.872;4.712;2022-12-26T02:12:08;10.90;99.90
8778;DHT22;4425;50.872;4.712;2022-12-26T02:14:45;10.90;99.90
8778;DHT22;4425;50.872;4.712;2022-12-26T02:17:13;10.80;99.90
8778;DHT22;4425;50.872;4.712;2022-12-26T02:19:46;10.80;99.90
8778;DHT22;4425;50.872;4.712;2022-12-26T02:22:41;10.80;99.90
8778;DHT22;4425;50.872;4.712;2022-12-26T02:25:27;10.80;99.90
8778;DHT22;4425;50.872;4.712;2022-12-26T02:28:23;10.80;99.90
8778;DHT22;4425;50.872;4.712;2022-12-26T02:31:12;10.80;99.90
8778;DHT22;4425;50.872;4.712;2022-12-26T02:33:46;10.80;99.90
8778;DHT22;4425;50.872;4.712;2022-12-26T02:36:44;10.90;99.90
8778;DHT22;4425;50.872;4.712;2022-12-26T02:39:39;10.80;99.90
8778;DHT22;4425;50.872;4.712;2022-12-26T02:42:19;10.80;99.90
8778;DHT22;4425;50.872;4.712;2022-12-26T02:44:51;10.70;99.90
8778;DHT22;4425;50.872;4.712;2022-12-26T02:47:43;10.70;99.90
8778;DHT22;4425;50.872;4.712;2022-12-26T02:50:23;10.60;99.90
8778;DHT22;4425;50.872;4.712;2022-12-26T02:53:15;10.60;99.90
8778;DHT22;4425;50.872;4.712;2022-12-26T02:56:08;10.50;99.90
8778;DHT22;4425;50.872;4.712;2022-12-26T02:59:02;10.50;99.90
8778;DHT22;4425;50.872;4.712;2022-12-26T03:01:52;10.50;99.90
8778;DHT22;4425;50.872;4.712;2022-12-26T03:04:59;10.40;99.90
8778;DHT22;4425;50.872;4.712;2022-12-26T03:07:58;10.40;99.90
8778;DHT22;4425;50.872;4.712;2022-12-26T03:10:44;10.40;99.90
8778;DHT22;4425;50.872;4.712;2022-12-26T03:13:31;10.30;99.90
8778;DHT22;4425;50.872;4.712;2022-12-26T03:16:04;10.30;99.90
8778;DHT22;4425;50.872;4.712;2022-12-26T03:18:54;10.30;99.90
8778;DHT22;4425;50.872;4.712;2022-12-26T03:21:27;10.40;99.90
8778;DHT22;4425;50.872;4.712;2022-12-26T03:23:57;10.30;99.90
8778;DHT22;4425;50.872;4.712;2022-12-26T03:26:28;10.30;99.90
8778;DHT22;4425;50.872;4.712;2022-12-26T03:29:05;10.30;99.90
8778;DHT22;4425;50.872;4.712;2022-12-26T03:32:01;10.30;99.90
8778;DHT22;4425;50.872;4.712;2022-12-26T03:34:30;10.30;99.90
8778;DHT22;4425;50.872;4.712;2022-12-26T03:40:07;10.30;99.90
8778;DHT22;4425;50.872;4.712;2022-12-26T03:43:06;10.20;99.90
8778;DHT22;4425;50.872;4.712;2022-12-26T03:46:00;10.30;99.90
8778;DHT22;4425;50.872;4.712;2022-12-26T03:48:52;10.20;99.90
8778;DHT22;4425;50.872;4.712;2022-12-26T03:51:41;10.20;99.90
8778;DHT22;4425;50.872;4.712;2022-12-26T03:54:34;10.20;99.90
8778;DHT22;4425;50.872;4.712;2022-12-26T03:57:36;10.30;99.90
8778;DHT22;4425;50.872;4.712;2022-12-26T04:00:23;10.30;99.90
8778;DHT22;4425;50.872;4.712;2022-12-26T04:03:12;10.30;99.90
8778;DHT22;4425;50.872;4.712;2022-12-26T04:05:59;10.30;99.90
8778;DHT22;4425;50.872;4.712;2022-12-26T04:08:46;10.30;99.90
8778;DHT22;4425;50.872;4.712;2022-12-26T04:11:43;10.40;99.90
8778;DHT22;4425;50.872;4.712;2022-12-26T04:14:36;10.30;99.90
8778;DHT22;4425;50.872;4.712;2022-12-26T04:17:26;10.30;99.90
8778;DHT22;4425;50.872;4.712;2022-12-26T04:20:23;10.30;99.90
8778;DHT22;4425;50.872;4.712;2022-12-26T04:23:03;10.30;99.90
8778;DHT22;4425;50.872;4.712;2022-12-26T04:25:51;10.30;99.90
8778;DHT22;4425;50.872;4.712;2022-12-26T04:28:40;10.40;99.90
8778;DHT22;4425;50.872;4.712;2022-12-26T04:31:28;10.40;99.90
8778;DHT22;4425;50.872;4.712;2022-12-26T04:34:21;10.40;99.90
8778;DHT22;4425;50.872;4.712;2022-12-26T04:37:18;10.40;99.90
8778;DHT22;4425;50.872;4.712;2022-12-26T04:40:08;10.40;99.90
8778;DHT22;4425;50.872;4.712;2022-12-26T04:42:55;10.40;99.90
8778;DHT22;4425;50.872;4.712;2022-12-26T04:46:02;10.40;99.90
8778;DHT22;4425;50.872;4.712;2022-12-26T04:48:32;10.40;99.90
8778;DHT22;4425;50.872;4.712;2022-12-26T04:51:17;10.40;99.90
8778;DHT22;4425;50.872;4.712;2022-12-26T04:53:48;10.40;99.90
8778;DHT22;4425;50.872;4.712;2022-12-26T04:56:18;10.40;99.90
8778;DHT22;4425;50.872;4.712;2022-12-26T04:58:53;10.50;99.90
8778;DHT22;4425;50.872;4.712;2022-12-26T05:01:23;10.40;99.90
8778;DHT22;4425;50.872;4.712;2022-12-26T05:04:12;10.40;99.90
8778;DHT22;4425;50.872;4.712;2022-12-26T05:07:00;10.40;99.90
8778;DHT22;4425;50.872;4.712;2022-12-26T05:09:46;10.40;99.90
8778;DHT22;4425;50.872;4.712;2022-12-26T05:12:17;10.30;99.90
8778;DHT22;4425;50.872;4.712;2022-12-26T05:14:46;10.30;99.90
8778;DHT22;4425;50.872;4.712;2022-12-26T05:17:20;10.30;99.90
8778;DHT22;4425;50.872;4.712;2022-12-26T05:20:05;10.20;99.90
8778;DHT22;4425;50.872;4.712;2022-12-26T05:22:52;10.20;99.90
8778;DHT22;4425;50.872;4.712;2022-12-26T05:25:46;10.30;99.90
8778;DHT22;4425;50.872;4.712;2022-12-26T05:28:31;10.30;99.90
8778;DHT22;4425;50.872;4.712;2022-12-26T05:31:11;10.20;99.90
8778;DHT22;4425;50.872;4.712;2022-12-26T05:33:44;10.20;99.90
8778;DHT22;4425;50.872;4.712;2022-12-26T05:36:33;10.20;99.90
8778;DHT22;4425;50.872;4.712;2022-12-26T05:39:03;10.20;99.90
8778;DHT22;4425;50.872;4.712;2022-12-26T05:41:32;10.30;99.90
8778;DHT22;4425;50.872;4.712;2022-12-26T05:44:02;10.30;99.90
8778;DHT22;4425;50.872;4.712;2022-12-26T05:46:30;10.30;99.90
8778;DHT22;4425;50.872;4.712;2022-12-26T05:49:12;10.30;99.90
8778;DHT22;4425;50.872;4.712;2022-12-26T05:51:39;10.40;99.90
8778;DHT22;4425;50.872;4.712;2022-12-26T05:54:12;10.50;99.90
8778;DHT22;4425;50.872;4.712;2022-12-26T05:56:41;10.60;99.90
8778;DHT22;4425;50.872;4.712;2022-12-26T05:59:09;10.60;99.90
8778;DHT22;4425;50.872;4.712;2022-12-26T06:01:42;10.60;99.90
8778;DHT22;4425;50.872;4.712;2022-12-26T06:04:34;10.60;99.90
8778;DHT22;4425;50.872;4.712;2022-12-26T06:07:08;10.60;99.90
8778;DHT22;4425;50.872;4.712;2022-12-26T06:09:39;10.60;99.90
8778;DHT22;4425;50.872;4.712;2022-12-26T06:12:06;10.60;99.90
8778;DHT22;4425;50.872;4.712;2022-12-26T06:14:34;10.50;99.90
8778;DHT22;4425;50.872;4.712;2022-12-26T06:17:02;10.50;99.90
8778;DHT22;4425;50.872;4.712;2022-12-26T06:19:32;10.50;99.90
8778;DHT22;4425;50.872;4.712;2022-12-26T06:21:59;10.50;99.90
8778;DHT22;4425;50.872;4.712;2022-12-26T06:24:37;10.40;99.90
8778;DHT22;4425;50.872;4.712;2022-12-26T06:27:14;10.50;99.90
8778;DHT22;4425;50.872;4.712;2022-12-26T06:29:41;10.50;99.90
8778;DHT22;4425;50.872;4.712;2022-12-26T06:32:10;10.50;99.90
8778;DHT22;4425;50.872;4.712;2022-12-26T06:34:44;10.50;99.90
8778;DHT22;4425;50.872;4.712;2022-12-26T06:37:19;10.50;99.90
8778;DHT22;4425;50.872;4.712;2022-12-26T06:40:00;10.60;99.90
8778;DHT22;4425;50.872;4.712;2022-12-26T06:42:41;10.60;99.90
8778;DHT22;4425;50.872;4.712;2022-12-26T06:45:09;10.50;99.90
8778;DHT22;4425;50.872;4.712;2022-12-26T06:47:41;10.50;99.90
8778;DHT22;4425;50.872;4.712;2022-12-26T06:50:27;10.50;99.90
8778;DHT22;4425;50.872;4.712;2022-12-26T06:52:56;10.50;99.90
8778;DHT22;4425;50.872;4.712;2022-12-26T06:55:25;10.50;99.90
8778;DHT22;4425;50.872;4.712;2022-12-26T06:57:54;10.50;99.90
8778;DHT22;4425;50.872;4.712;2022-12-26T07:00:22;10.50;99.90
8778;DHT22;4425;50.872;4.712;2022-12-26T07:02:49;10.50;99.90
8778;DHT22;4425;50.872;4.712;2022-12-26T07:05:19;10.50;99.90
8778;DHT22;4425;50.872;4.712;2022-12-26T07:07:52;10.60;99.90
8778;DHT22;4425;50.872;4.712;2022-12-26T07:10:21;10.50;99.90
8778;DHT22;4425;50.872;4.712;2022-12-26T07:12:49;10.50;99.90
8778;DHT22;4425;50.872;4.712;2022-12-26T07:15:16;10.50;99.90
8778;DHT22;4425;50.872;4.712;2022-12-26T07:17:45;10.60;99.90
8778;DHT22;4425;50.872;4.712;2022-12-26T07:20:15;10.60;99.90
8778;DHT22;4425;50.872;4.712;2022-12-26T07:22:57;10.50;99.90
8778;DHT22;4425;50.872;4.712;2022-12-26T07:25:35;10.60;99.90
8778;DHT22;4425;50.872;4.712;2022-12-26T07:28:04;10.60;99.90
8778;DHT22;4425;50.872;4.712;2022-12-26T07:30:32;10.60;99.90
8778;DHT22;4425;50.872;4.712;2022-12-26T07:32:59;10.70;99.90
8778;DHT22;4425;50.872;4.712;2022-12-26T07:35:29;10.70;99.90
8778;DHT22;4425;50.872;4.712;2022-12-26T07:38:09;10.80;99.90
8778;DHT22;4425;50.872;4.712;2022-12-26T07:40:50;10.80;99.90
8778;DHT22;4425;50.872;4.712;2022-12-26T07:43:21;10.80;99.90
8778;DHT22;4425;50.872;4.712;2022-12-26T07:45:51;10.80;99.90
8778;DHT22;4425;50.872;4.712;2022-12-26T07:48:32;10.80;99.90
8778;DHT22;4425;50.872;4.712;2022-12-26T07:51:02;10.80;99.90
8778;DHT22;4425;50.872;4.712;2022-12-26T07:53:31;10.80;99.90
8778;DHT22;4425;50.872;4.712;2022-12-26T07:56:01;10.80;99.90
8778;DHT22;4425;50.872;4.712;2022-12-26T07:58:40;10.90;99.90
8778;DHT22;4425;50.872;4.712;2022-12-26T08:01:10;10.80;99.90
8778;DHT22;4425;50.872;4.712;2022-12-26T08:03:38;10.90;99.90
8778;DHT22;4425;50.872;4.712;2022-12-26T08:06:08;10.80;99.90
8778;DHT22;4425;50.872;4.712;2022-12-26T08:08:37;10.90;99.90
8778;DHT22;4425;50.872;4.712;2022-12-26T08:11:06;10.80;99.90
8778;DHT22;4425;50.872;4.712;2022-12-26T08:13:34;10.80;99.90
8778;DHT22;4425;50.872;4.712;2022-12-26T08:16:04;10.80;99.90
8778;DHT22;4425;50.872;4.712;2022-12-26T08:18:33;10.80;99.90
8778;DHT22;4425;50.872;4.712;2022-12-26T08:21:06;10.80;99.90
8778;DHT22;4425;50.872;4.712;2022-12-26T08:23:40;10.80;99.90
8778;DHT22;4425;50.872;4.712;2022-12-26T08:26:14;10.80;99.90
8778;DHT22;4425;50.872;4.712;2022-12-26T08:28:50;10.80;99.90
8778;DHT22;4425;50.872;4.712;2022-12-26T08:31:18;10.90;99.90
8778;DHT22;4425;50.872;4.712;2022-12-26T08:33:47;10.90;99.90
8778;DHT22;4425;50.872;4.712;2022-12-26T08:36:18;10.90;99.90
8778;DHT22;4425;50.872;4.712;2022-12-26T08:38:52;11.00;99.90
8778;DHT22;4425;50.872;4.712;2022-12-26T08:41:22;11.00;99.90
8778;DHT22;4425;50.872;4.712;2022-12-26T08:43:58;11.00;99.90
8778;DHT22;4425;50.872;4.712;2022-12-26T08:46:25;11.00;99.90
8778;DHT22;4425;50.872;4.712;2022-12-26T08:48:52;10.90;99.90
8778;DHT22;4425;50.872;4.712;2022-12-26T08:51:24;10.90;99.90
8778;DHT22;4425;50.872;4.712;2022-12-26T08:53:54;10.90;99.90
8778;DHT22;4425;50.872;4.712;2022-12-26T08:56:27;10.90;99.90
8778;DHT22;4425;50.872;4.712;2022-12-26T08:58:55;10.90;99.90
8778;DHT22;4425;50.872;4.712;2022-12-26T09:01:24;11.00;99.90
8778;DHT22;4425;50.872;4.712;2022-12-26T09:03:53;11.00;99.90
8778;DHT22;4425;50.872;4.712;2022-12-26T09:06:23;11.00;99.90
8778;DHT22;4425;50.872;4.712;2022-12-26T09:09:00;11.00;99.90
8778;DHT22;4425;50.872;4.712;2022-12-26T09:11:28;11.00;99.90
8778;DHT22;4425;50.872;4.712;2022-12-26T09:13:59;11.10;99.90
8778;DHT22;4425;50.872;4.712;2022-12-26T09:16:28;11.10;99.90
8778;DHT22;4425;50.872;4.712;2022-12-26T09:18:57;11.20;99.90
8778;DHT22;4425;50.872;4.712;2022-12-26T09:21:26;11.20;99.90
8778;DHT22;4425;50.872;4.712;2022-12-26T09:24:10;11.20;99.90
8778;DHT22;4425;50.872;4.712;2022-12-26T09:26:39;11.30;99.90
8778;DHT22;4425;50.872;4.712;2022-12-26T09:29:09;11.30;99.90
8778;DHT22;4425;50.872;4.712;2022-12-26T09:31:37;11.40;99.90
8778;DHT22;4425;50.872;4.712;2022-12-26T09:34:07;11.40;99.90
8778;DHT22;4425;50.872;4.712;2022-12-26T09:36:37;11.50;99.90
8778;DHT22;4425;50.872;4.712;2022-12-26T09:39:07;11.40;99.90
8778;DHT22;4425;50.872;4.712;2022-12-26T09:44:40;11.50;99.90
8778;DHT22;4425;50.872;4.712;2022-12-26T09:47:21;11.60;99.90
8778;DHT22;4425;50.872;4.712;2022-12-26T09:49:55;11.50;99.90
8778;DHT22;4425;50.872;4.712;2022-12-26T09:52:30;11.50;99.90
8778;DHT22;4425;50.872;4.712;2022-12-26T09:55:31;11.60;99.90
8778;DHT22;4425;50.872;4.712;2022-12-26T09:58:12;11.50;99.90
8778;DHT22;4425;50.872;4.712;2022-12-26T10:00:50;11.50;99.90
8778;DHT22;4425;50.872;4.712;2022-12-26T10:03:18;11.50;99.90
8778;DHT22;4425;50.872;4.712;2022-12-26T10:06:00;11.60;99.90
8778;DHT22;4425;50.872;4.712;2022-12-26T10:08:43;11.60;99.90
8778;DHT22;4425;50.872;4.712;2022-12-26T10:11:31;11.70;99.90
8778;DHT22;4425;50.872;4.712;2022-12-26T10:14:10;11.60;99.90
8778;DHT22;4425;50.872;4.712;2022-12-26T10:16:46;11.60;99.90
8778;DHT22;4425;50.872;4.712;2022-12-26T10:19:27;11.60;99.90
8778;DHT22;4425;50.872;4.712;2022-12-26T10:22:09;11.50;99.90
8778;DHT22;4425;50.872;4.712;2022-12-26T10:24:41;11.50;99.90
8778;DHT22;4425;50.872;4.712;2022-12-26T10:27:17;11.50;99.90
8778;DHT22;4425;50.872;4.712;2022-12-26T10:29:47;11.50;99.90
8778;DHT22;4425;50.872;4.712;2022-12-26T10:32:21;11.50;99.90
8778;DHT22;4425;50.872;4.712;2022-12-26T10:34:49;11.50;99.90
8778;DHT22;4425;50.872;4.712;2022-12-26T10:37:23;11.50;99.90
8778;DHT22;4425;50.872;4.712;2022-12-26T10:39:54;11.50;99.90
8778;DHT22;4425;50.872;4.712;2022-12-26T10:42:28;11.50;99.90
8778;DHT22;4425;50.872;4.712;2022-12-26T10:45:01;11.60;99.90
8778;DHT22;4425;50.872;4.712;2022-12-26T10:47:32;11.70;99.90
8778;DHT22;4425;50.872;4.712;2022-12-26T10:50:03;11.60;99.90
8778;DHT22;4425;50.872;4.712;2022-12-26T10:52:33;11.50;99.90
8778;DHT22;4425;50.872;4.712;2022-12-26T10:55:05;11.40;99.90
8778;DHT22;4425;50.872;4.712;2022-12-26T10:57:35;11.40;99.90
8778;DHT22;4425;50.872;4.712;2022-12-26T11:00:13;11.40;99.90
8778;DHT22;4425;50.872;4.712;2022-12-26T11:02:44;11.30;99.90
8778;DHT22;4425;50.872;4.712;2022-12-26T11:05:13;11.30;99.90
8778;DHT22;4425;50.872;4.712;2022-12-26T11:07:47;11.40;99.90
8778;DHT22;4425;50.872;4.712;2022-12-26T11:10:18;11.40;99.90
8778;DHT22;4425;50.872;4.712;2022-12-26T11:12:51;11.40;99.90
8778;DHT22;4425;50.872;4.712;2022-12-26T11:15:22;11.40;99.90
8778;DHT22;4425;50.872;4.712;2022-12-26T11:17:53;11.50;99.90
8778;DHT22;4425;50.872;4.712;2022-12-26T11:20:27;11.40;99.90
8778;DHT22;4425;50.872;4.712;2022-12-26T11:23:17;11.30;99.90
8778;DHT22;4425;50.872;4.712;2022-12-26T11:25:50;11.30;99.90
8778;DHT22;4425;50.872;4.712;2022-12-26T11:28:30;11.30;99.90
8778;DHT22;4425;50.872;4.712;2022-12-26T11:30:58;11.30;99.90
8778;DHT22;4425;50.872;4.712;2022-12-26T11:33:31;11.30;99.90
8778;DHT22;4425;50.872;4.712;2022-12-26T11:36:05;11.30;99.90
8778;DHT22;4425;50.872;4.712;2022-12-26T11:38:50;11.20;99.90
8778;DHT22;4425;50.872;4.712;2022-12-26T11:41:40;11.00;99.90
8778;DHT22;4425;50.872;4.712;2022-12-26T11:44:29;10.90;99.90
8778;DHT22;4425;50.872;4.712;2022-12-26T11:47:08;10.60;99.90
8778;DHT22;4425;50.872;4.712;2022-12-26T11:49:58;10.60;99.90
8778;DHT22;4425;50.872;4.712;2022-12-26T11:52:42;10.50;99.90
8778;DHT22;4425;50.872;4.712;2022-12-26T11:55:35;10.50;99.90
8778;DHT22;4425;50.872;4.712;2022-12-26T11:58:17;10.50;99.90
8778;DHT22;4425;50.872;4.712;2022-12-26T12:01:21;10.50;99.90
8778;DHT22;4425;50.872;4.712;2022-12-26T12:03:56;10.50;99.90
8778;DHT22;4425;50.872;4.712;2022-12-26T12:06:52;10.50;99.90
8778;DHT22;4425;50.872;4.712;2022-12-26T12:09:35;10.50;99.90
8778;DHT22;4425;50.872;4.712;2022-12-26T12:12:12;10.50;99.90
8778;DHT22;4425;50.872;4.712;2022-12-26T12:15:03;10.40;99.90
8778;DHT22;4425;50.872;4.712;2022-12-26T12:17:44;10.50;99.90
8778;DHT22;4425;50.872;4.712;2022-12-26T12:20:38;10.40;99.90
8778;DHT22;4425;50.872;4.712;2022-12-26T12:23:35;10.50;99.90
8778;DHT22;4425;50.872;4.712;2022-12-26T12:26:21;10.40;99.90
8778;DHT22;4425;50.872;4.712;2022-12-26T12:32:06;10.30;99.90
8778;DHT22;4425;50.872;4.712;2022-12-26T12:35:03;10.30;99.90
8778;DHT22;4425;50.872;4.712;2022-12-26T12:37:55;10.30;99.90
8778;DHT22;4425;50.872;4.712;2022-12-26T12:40:39;10.40;99.90
8778;DHT22;4425;50.872;4.712;2022-12-26T12:43:18;10.40;99.90
8778;DHT22;4425;50.872;4.712;2022-12-26T12:46:06;10.30;99.90
8778;DHT22;4425;50.872;4.712;2022-12-26T12:48:52;10.30;99.90
8778;DHT22;4425;50.872;4.712;2022-12-26T12:51:35;10.20;99.90
8778;DHT22;4425;50.872;4.712;2022-12-26T12:54:34;10.10;99.90
8778;DHT22;4425;50.872;4.712;2022-12-26T12:57:18;10.10;99.90
8778;DHT22;4425;50.872;4.712;2022-12-26T13:00:09;10.10;99.90
8778;DHT22;4425;50.872;4.712;2022-12-26T13:02:44;10.20;99.90
8778;DHT22;4425;50.872;4.712;2022-12-26T13:05:27;10.20;99.90
8778;DHT22;4425;50.872;4.712;2022-12-26T13:08:05;10.10;99.90
8778;DHT22;4425;50.872;4.712;2022-12-26T13:10:38;10.00;99.90
8778;DHT22;4425;50.872;4.712;2022-12-26T13:13:17;10.00;99.90
8778;DHT22;4425;50.872;4.712;2022-12-26T13:15:53;10.00;99.90
8778;DHT22;4425;50.872;4.712;2022-12-26T13:18:27;10.00;99.90
8778;DHT22;4425;50.872;4.712;2022-12-26T13:20:59;9.90;99.90
8778;DHT22;4425;50.872;4.712;2022-12-26T13:23:34;9.90;99.90
8778;DHT22;4425;50.872;4.712;2022-12-26T13:26:21;9.90;99.90
8778;DHT22;4425;50.872;4.712;2022-12-26T13:28:59;9.90;99.90
8778;DHT22;4425;50.872;4.712;2022-12-26T13:31:32;9.90;99.90
8778;DHT22;4425;50.872;4.712;2022-12-26T13:34:03;9.80;99.90
8778;DHT22;4425;50.872;4.712;2022-12-26T13:36:39;9.80;99.90
8778;DHT22;4425;50.872;4.712;2022-12-26T13:39:36;9.80;99.90
8778;DHT22;4425;50.872;4.712;2022-12-26T13:42:21;9.70;99.90
8778;DHT22;4425;50.872;4.712;2022-12-26T13:45:45;9.60;99.90
8778;DHT22;4425;50.872;4.712;2022-12-26T13:51:57;9.50;99.90
8778;DHT22;4425;50.872;4.712;2022-12-26T13:54:28;9.50;99.90
8778;DHT22;4425;50.872;4.712;2022-12-26T13:57:19;9.50;99.90
8778;DHT22;4425;50.872;4.712;2022-12-26T14:00:00;9.50;99.90
8778;DHT22;4425;50.872;4.712;2022-12-26T14:03:06;9.40;99.90
8778;DHT22;4425;50.872;4.712;2022-12-26T14:05:42;9.40;99.90
8778;DHT22;4425;50.872;4.712;2022-12-26T14:08:19;9.40;99.90
8778;DHT22;4425;50.872;4.712;2022-12-26T14:11:00;9.40;99.90
8778;DHT22;4425;50.872;4.712;2022-12-26T14:13:51;9.30;99.90
8778;DHT22;4425;50.872;4.712;2022-12-26T14:16:28;9.20;99.90
8778;DHT22;4425;50.872;4.712;2022-12-26T14:19:01;9.20;99.90
8778;DHT22;4425;50.872;4.712;2022-12-26T14:21:43;9.10;99.90
8778;DHT22;4425;50.872;4.712;2022-12-26T14:24:28;9.10;99.90
8778;DHT22;4425;50.872;4.712;2022-12-26T14:27:23;9.00;99.90
8778;DHT22;4425;50.872;4.712;2022-12-26T14:29:57;9.00;99.90
8778;DHT22;4425;50.872;4.712;2022-12-26T14:32:38;9.00;99.90
8778;DHT22;4425;50.872;4.712;2022-12-26T14:35:13;9.00;99.90
8778;DHT22;4425;50.872;4.712;2022-12-26T14:37:52;9.00;99.90
8778;DHT22;4425;50.872;4.712;2022-12-26T14:40:29;8.90;99.90
8778;DHT22;4425;50.872;4.712;2022-12-26T14:43:22;8.90;99.90
8778;DHT22;4425;50.872;4.712;2022-12-26T14:45:51;8.90;99.90
8778;DHT22;4425;50.872;4.712;2022-12-26T14:48:46;8.90;99.90
8778;DHT22;4425;50.872;4.712;2022-12-26T14:51:36;8.80;99.90
8778;DHT22;4425;50.872;4.712;2022-12-26T14:54:38;8.70;99.90
8778;DHT22;4425;50.872;4.712;2022-12-26T14:57:40;8.60;99.90
8778;DHT22;4425;50.872;4.712;2022-12-26T15:00:40;8.50;99.90
8778;DHT22;4425;50.872;4.712;2022-12-26T15:03:35;8.50;99.90
8778;DHT22;4425;50.872;4.712;2022-12-26T15:06:40;8.50;99.90
8778;DHT22;4425;50.872;4.712;2022-12-26T15:09:46;8.40;99.90
8778;DHT22;4425;50.872;4.712;2022-12-26T15:12:56;8.30;99.90
8778;DHT22;4425;50.872;4.712;2022-12-26T15:15:33;8.20;99.90
8778;DHT22;4425;50.872;4.712;2022-12-26T15:24:25;7.90;99.90
8778;DHT22;4425;50.872;4.712;2022-12-26T15:30:04;7.60;99.90
8778;DHT22;4425;50.872;4.712;2022-12-26T15:32:36;7.50;99.90
8778;DHT22;4425;50.872;4.712;2022-12-26T15:35:15;7.40;99.90
8778;DHT22;4425;50.872;4.712;2022-12-26T15:37:56;7.30;99.90
8778;DHT22;4425;50.872;4.712;2022-12-26T15:40:35;7.20;99.90
8778;DHT22;4425;50.872;4.712;2022-12-26T15:43:30;7.20;99.90
8778;DHT22;4425;50.872;4.712;2022-12-26T15:46:04;7.00;99.90
8778;DHT22;4425;50.872;4.712;2022-12-26T15:48:42;7.00;99.90
8778;DHT22;4425;50.872;4.712;2022-12-26T15:51:13;6.90;99.90
8778;DHT22;4425;50.872;4.712;2022-12-26T15:53:55;6.90;99.90
8778;DHT22;4425;50.872;4.712;2022-12-26T15:56:50;6.90;99.90
8778;DHT22;4425;50.872;4.712;2022-12-26T15:59:42;6.80;99.90
8778;DHT22;4425;50.872;4.712;2022-12-26T16:02:32;6.80;99.90
8778;DHT22;4425;50.872;4.712;2022-12-26T16:08:03;6.60;99.90
8778;DHT22;4425;50.872;4.712;2022-12-26T16:10:35;6.60;99.90
8778;DHT22;4425;50.872;4.712;2022-12-26T16:13:12;6.60;99.90
8778;DHT22;4425;50.872;4.712;2022-12-26T16:15:45;6.50;99.90
8778;DHT22;4425;50.872;4.712;2022-12-26T16:18:13;6.50;99.90
8778;DHT22;4425;50.872;4.712;2022-12-26T16:20:41;6.40;99.90
8778;DHT22;4425;50.872;4.712;2022-12-26T16:23:29;6.40;99.90
8778;DHT22;4425;50.872;4.712;2022-12-26T16:25:58;6.30;99.90
8778;DHT22;4425;50.872;4.712;2022-12-26T16:28:34;6.30;99.90
8778;DHT22;4425;50.872;4.712;2022-12-26T16:31:02;6.30;99.90
8778;DHT22;4425;50.872;4.712;2022-12-26T16:33:33;6.30;99.90
8778;DHT22;4425;50.872;4.712;2022-12-26T16:36:07;6.30;99.90
8778;DHT22;4425;50.872;4.712;2022-12-26T16:38:35;6.20;99.90
8778;DHT22;4425;50.872;4.712;2022-12-26T16:41:17;6.20;99.90
8778;DHT22;4425;50.872;4.712;2022-12-26T16:43:47;6.20;99.90
8778;DHT22;4425;50.872;4.712;2022-12-26T16:46:15;6.20;99.90
8778;DHT22;4425;50.872;4.712;2022-12-26T16:48:51;6.10;99.90
8778;DHT22;4425;50.872;4.712;2022-12-26T16:51:37;6.20;99.90
8778;DHT22;4425;50.872;4.712;2022-12-26T16:54:15;6.10;99.90
8778;DHT22;4425;50.872;4.712;2022-12-26T16:56:42;6.00;99.90
8778;DHT22;4425;50.872;4.712;2022-12-26T16:59:16;6.00;99.90
8778;DHT22;4425;50.872;4.712;2022-12-26T17:01:47;6.00;99.90
8778;DHT22;4425;50.872;4.712;2022-12-26T17:04:18;6.00;99.90
8778;DHT22;4425;50.872;4.712;2022-12-26T17:06:50;5.90;99.90
8778;DHT22;4425;50.872;4.712;2022-12-26T17:09:20;5.80;99.90
8778;DHT22;4425;50.872;4.712;2022-12-26T17:12:02;5.80;99.90
8778;DHT22;4425;50.872;4.712;2022-12-26T17:14:35;5.80;99.90
8778;DHT22;4425;50.872;4.712;2022-12-26T17:17:05;5.80;99.90
8778;DHT22;4425;50.872;4.712;2022-12-26T17:19:35;5.70;99.90
8778;DHT22;4425;50.872;4.712;2022-12-26T17:22:20;5.60;99.90
8778;DHT22;4425;50.872;4.712;2022-12-26T17:24:49;5.60;99.90
8778;DHT22;4425;50.872;4.712;2022-12-26T17:27:18;5.60;99.90
8778;DHT22;4425;50.872;4.712;2022-12-26T17:29:49;5.60;99.90
8778;DHT22;4425;50.872;4.712;2022-12-26T17:32:31;5.60;99.90
8778;DHT22;4425;50.872;4.712;2022-12-26T17:35:00;5.50;99.90
8778;DHT22;4425;50.872;4.712;2022-12-26T17:37:27;5.50;99.90
8778;DHT22;4425;50.872;4.712;2022-12-26T17:40:00;5.50;99.90